Time;durP1;ratioP1;P1;durP2;ratioP2;P2;SDS_P1;SDS_P2;PMS_P1;PMS_P2;Temp;Humidity;BMP_temperature;BMP_pressure;BME280_temperature;BME280_humidity;BME280_pressure;Samples;Min_cycle;Max_cycle;Signal;HPM_P1;HPM_P2
2022/06/13 00:01:35;;;;;;;12.07;5.93;;;;;;;;;;4991157;28;20477;-82
2022/06/13 00:04:03;;;;;;;9.93;5.63;;;;;;;;;;4989623;28;20482;-83
2022/06/13 00:06:31;;;;;;;11.33;5.13;;;;;;;;;;4994021;28;20478;-82
2022/06/13 00:08:57;;;;;;;12.50;5.47;;;;;;;;;;4992323;28;20470;-82
2022/06/13 00:11:25;;;;;;;10.90;5.13;;;;;;;;;;4990569;28;21259;-81
2022/06/13 00:13:52;;;;;;;12.07;5.43;;;;;;;;;;4993630;28;20486;-84
2022/06/13 00:16:19;;;;;;;16.97;5.57;;;;;;;;;;4989580;28;20489;-83
2022/06/13 00:18:47;;;;;;;16.77;6.50;;;;;;;;;;4990009;28;20477;-82
2022/06/13 00:21:14;;;;;;;16.10;6.30;;;;;;;;;;4987041;28;20485;-82
2022/06/13 00:23:42;;;;;;;13.07;5.60;;;;;;;;;;4982677;28;20490;-82
2022/06/13 00:26:08;;;;;;;10.57;4.40;;;;;;;;;;4983117;28;20474;-81
2022/06/13 00:28:35;;;;;;;15.30;5.20;;;;;;;;;;4989170;28;20458;-80
2022/06/13 00:31:01;;;;;;;17.97;6.77;;;;;;;;;;4987048;28;20493;-80
2022/06/13 00:33:27;;;;;;;19.80;7.33;;;;;;;;;;4991373;28;20506;-83
2022/06/13 00:35:54;;;;;;;11.07;5.83;;;;;;;;;;4985140;28;21149;-80
2022/06/13 00:38:20;;;;;;;10.17;5.80;;;;;;;;;;4991263;28;20469;-81
2022/06/13 00:40:48;;;;;;;14.03;5.67;;;;;;;;;;4988806;28;20577;-80
2022/06/13 00:43:15;;;;;;;15.13;6.83;;;;;;;;;;4990798;28;20490;-82
2022/06/13 00:45:41;;;;;;;19.37;6.17;;;;;;;;;;4990497;28;20457;-81
2022/06/13 00:48:11;;;;;;;11.70;6.00;;;;;;;;;;4992881;28;20444;-81
2022/06/13 00:50:39;;;;;;;16.23;6.00;;;;;;;;;;4989505;28;21013;-80
2022/06/13 00:53:08;;;;;;;11.60;5.30;;;;;;;;;;4989599;28;20478;-79
2022/06/13 00:55:39;;;;;;;16.33;6.07;;;;;;;;;;4993143;28;20492;-81
2022/06/13 00:58:07;;;;;;;14.37;6.10;;;;;;;;;;4993763;28;21135;-81
2022/06/13 01:00:35;;;;;;;10.90;5.93;;;;;;;;;;4991976;28;21001;-80
2022/06/13 01:03:02;;;;;;;13.10;6.30;;;;;;;;;;4994072;28;20482;-82
2022/06/13 01:05:29;;;;;;;20.90;6.73;;;;;;;;;;4988150;28;20893;-84
2022/06/13 01:07:56;;;;;;;13.97;6.40;;;;;;;;;;4991413;28;20957;-78
2022/06/13 01:13:09;;;;;;;15.17;6.77;;;;;;;;;;4987777;28;26155;-80
2022/06/13 01:15:43;;;;;;;15.70;6.30;;;;;;;;;;4989887;28;20474;-83
2022/06/13 01:18:17;;;;;;;11.80;6.27;;;;;;;;;;4991166;28;20474;-84
2022/06/13 01:20:49;;;;;;;16.50;6.73;;;;;;;;;;4988081;28;20503;-84
2022/06/13 01:23:27;;;;;;;16.03;7.00;;;;;;;;;;4991344;28;20489;-83
2022/06/13 01:26:20;;;;;;;6.23;5.23;;;;;;;;;;4997462;28;20465;-82
2022/06/13 01:29:20;;;;;;;12.73;6.67;;;;;;;;;;4992663;28;20463;-81
2022/06/13 01:31:53;;;;;;;14.63;7.07;;;;;;;;;;4987766;28;20470;-80
2022/06/13 01:34:25;;;;;;;14.27;6.10;;;;;;;;;;4988296;28;20455;-82
2022/06/13 01:36:57;;;;;;;11.70;5.90;;;;;;;;;;4990046;28;20482;-81
2022/06/13 01:39:30;;;;;;;10.97;6.70;;;;;;;;;;4987453;28;20548;-82
2022/06/13 01:42:07;;;;;;;15.07;6.50;;;;;;;;;;4993016;28;21157;-82
2022/06/13 01:44:37;;;;;;;14.83;6.57;;;;;;;;;;4996562;28;20470;-83
2022/06/13 01:47:08;;;;;;;11.60;6.33;;;;;;;;;;4993285;28;21310;-80
2022/06/13 01:49:38;;;;;;;15.33;6.77;;;;;;;;;;4993636;28;20993;-82
2022/06/13 01:52:08;;;;;;;18.60;8.33;;;;;;;;;;4994176;28;20464;-81
2022/06/13 01:54:39;;;;;;;15.97;7.10;;;;;;;;;;4990529;28;20480;-79
2022/06/13 01:57:12;;;;;;;13.87;7.00;;;;;;;;;;4990053;28;20497;-81
2022/06/13 01:59:42;;;;;;;28.60;7.80;;;;;;;;;;4991988;28;20474;-80
2022/06/13 02:02:15;;;;;;;18.40;8.80;;;;;;;;;;4992834;28;20458;-80
2022/06/13 02:04:45;;;;;;;17.20;6.97;;;;;;;;;;4997067;28;20474;-82
2022/06/13 02:07:15;;;;;;;25.13;7.70;;;;;;;;;;4995419;28;20464;-81
2022/06/13 02:09:43;;;;;;;11.77;7.00;;;;;;;;;;4993961;28;20452;-79
2022/06/13 02:12:11;;;;;;;17.70;8.23;;;;;;;;;;4991845;28;20536;-81
2022/06/13 02:14:42;;;;;;;18.97;8.33;;;;;;;;;;4992675;28;20472;-80
2022/06/13 02:17:10;;;;;;;16.17;8.23;;;;;;;;;;4993319;28;20486;-82
2022/06/13 02:19:41;;;;;;;19.87;8.33;;;;;;;;;;4991780;28;20489;-84
2022/06/13 02:22:09;;;;;;;19.80;9.10;;;;;;;;;;4994925;28;20458;-81
2022/06/13 02:24:39;;;;;;;15.83;8.20;;;;;;;;;;4991499;28;20477;-82
2022/06/13 02:27:07;;;;;;;17.47;8.27;;;;;;;;;;4995070;28;20840;-83
2022/06/13 02:29:36;;;;;;;15.27;8.07;;;;;;;;;;4989740;28;20820;-81
2022/06/13 02:32:05;;;;;;;23.13;7.90;;;;;;;;;;4995035;28;20926;-80
2022/06/13 02:34:33;;;;;;;13.37;8.13;;;;;;;;;;4992874;28;20928;-80
2022/06/13 02:37:03;;;;;;;16.00;8.87;;;;;;;;;;4993908;28;20982;-80
2022/06/13 02:39:32;;;;;;;19.30;8.60;;;;;;;;;;4986764;28;20800;-80
2022/06/13 02:42:00;;;;;;;15.50;8.80;;;;;;;;;;4993366;28;20454;-80
2022/06/13 02:44:27;;;;;;;18.43;9.20;;;;;;;;;;4991914;28;20466;-82
2022/06/13 02:46:57;;;;;;;16.40;7.80;;;;;;;;;;4986874;28;20466;-80
2022/06/13 02:49:25;;;;;;;17.67;9.40;;;;;;;;;;4989826;28;20458;-82
2022/06/13 02:51:55;;;;;;;14.20;9.17;;;;;;;;;;4990727;28;20469;-82
2022/06/13 02:54:27;;;;;;;18.10;8.33;;;;;;;;;;4990349;28;20484;-78
2022/06/13 02:59:51;;;;;;;14.03;8.83;;;;;;;;;;4992368;28;21130;-82
2022/06/13 03:02:21;;;;;;;15.90;9.17;;;;;;;;;;4990706;28;20469;-81
2022/06/13 03:04:52;;;;;;;22.73;10.07;;;;;;;;;;4988524;28;20496;-81
2022/06/13 03:07:24;;;;;;;23.20;9.13;;;;;;;;;;4993446;28;20494;-81
2022/06/13 03:09:54;;;;;;;22.90;12.30;;;;;;;;;;4989448;28;21023;-80
2022/06/13 03:12:27;;;;;;;26.33;11.30;;;;;;;;;;4993996;28;20584;-81
2022/06/13 03:14:57;;;;;;;20.97;10.77;;;;;;;;;;4993868;28;20908;-81
2022/06/13 03:17:27;;;;;;;24.83;9.40;;;;;;;;;;4988887;28;20494;-79
2022/06/13 03:19:56;;;;;;;16.07;9.50;;;;;;;;;;4992787;28;20486;-82
2022/06/13 03:22:25;;;;;;;22.50;10.77;;;;;;;;;;4987802;28;20493;-81
2022/06/13 03:24:54;;;;;;;19.73;10.53;;;;;;;;;;4993121;28;20478;-81
2022/06/13 03:27:24;;;;;;;19.90;9.80;;;;;;;;;;4990976;28;20466;-80
2022/06/13 03:29:52;;;;;;;20.10;12.00;;;;;;;;;;4994368;28;20467;-82
2022/06/13 03:32:20;;;;;;;24.50;10.70;;;;;;;;;;4988066;28;20489;-81
2022/06/13 03:34:48;;;;;;;23.97;11.20;;;;;;;;;;4993390;28;20475;-80
2022/06/13 03:37:18;;;;;;;22.83;10.60;;;;;;;;;;4984999;28;20481;-82
2022/06/13 03:39:49;;;;;;;19.90;9.63;;;;;;;;;;4991824;28;20474;-82
2022/06/13 03:42:18;;;;;;;24.37;9.30;;;;;;;;;;4989487;28;20482;-81
2022/06/13 03:44:49;;;;;;;19.83;9.00;;;;;;;;;;4989973;28;20474;-83
2022/06/13 03:47:18;;;;;;;14.07;9.53;;;;;;;;;;4992040;28;20465;-81
2022/06/13 03:49:48;;;;;;;17.13;8.03;;;;;;;;;;4991475;28;20853;-82
2022/06/13 03:52:17;;;;;;;17.00;9.13;;;;;;;;;;4989149;28;20489;-82
2022/06/13 03:54:46;;;;;;;20.87;9.13;;;;;;;;;;4993844;28;20535;-80
2022/06/13 03:57:15;;;;;;;23.30;10.40;;;;;;;;;;4989747;28;20490;-81
2022/06/13 03:59:46;;;;;;;20.43;9.37;;;;;;;;;;4989370;28;20470;-81
2022/06/13 04:02:13;;;;;;;14.90;10.00;;;;;;;;;;4995715;28;20466;-81
2022/06/13 04:04:41;;;;;;;20.20;10.30;;;;;;;;;;4991831;28;20478;-81
2022/06/13 04:07:07;;;;;;;22.70;9.53;;;;;;;;;;4991626;28;20822;-81
2022/06/13 04:09:35;;;;;;;24.57;9.60;;;;;;;;;;4988271;28;20470;-80
2022/06/13 04:12:12;;;;;;;16.73;9.60;;;;;;;;;;4991733;28;20489;-80
2022/06/13 04:14:47;;;;;;;18.70;9.40;;;;;;;;;;4992765;28;20878;-81
2022/06/13 04:17:19;;;;;;;17.67;9.20;;;;;;;;;;4988757;28;20842;-81
2022/06/13 04:19:50;;;;;;;15.83;9.27;;;;;;;;;;5020299;22;20472;-82
2022/06/13 04:22:19;;;;;;;20.30;9.53;;;;;;;;;;5024635;28;20456;-84
2022/06/13 04:24:51;;;;;;;20.20;9.00;;;;;;;;;;5024921;28;20507;-82
2022/06/13 04:27:22;;;;;;;17.23;10.00;;;;;;;;;;5026384;28;20548;-82
2022/06/13 04:29:53;;;;;;;19.27;10.67;;;;;;;;;;5014115;28;20484;-82
2022/06/13 04:32:22;;;;;;;18.20;8.57;;;;;;;;;;5004123;28;20451;-83
2022/06/13 04:34:50;;;;;;;18.47;9.20;;;;;;;;;;5000947;28;21142;-81
2022/06/13 04:37:18;;;;;;;18.77;9.57;;;;;;;;;;5002915;28;20507;-81
2022/06/13 04:39:45;;;;;;;18.90;9.77;;;;;;;;;;5000951;28;20476;-81
2022/06/13 04:42:13;;;;;;;14.93;8.03;;;;;;;;;;5005883;28;20454;-81
2022/06/13 04:44:40;;;;;;;22.23;8.90;;;;;;;;;;5000790;28;20465;-82
2022/06/13 04:47:07;;;;;;;21.53;8.80;;;;;;;;;;5004422;28;20525;-81
2022/06/13 04:49:36;;;;;;;20.40;10.30;;;;;;;;;;5000480;28;20478;-82
2022/06/13 04:52:04;;;;;;;17.53;8.40;;;;;;;;;;5006661;28;20850;-82
2022/06/13 04:54:33;;;;;;;18.33;7.93;;;;;;;;;;5003663;28;20972;-82
2022/06/13 04:56:59;;;;;;;16.43;8.60;;;;;;;;;;5006942;28;20494;-82
2022/06/13 04:59:26;;;;;;;19.90;10.03;;;;;;;;;;5002833;28;20514;-81
2022/06/13 05:01:54;;;;;;;19.13;9.20;;;;;;;;;;5005839;28;21001;-84
2022/06/13 05:04:22;;;;;;;17.20;9.93;;;;;;;;;;5002791;28;20457;-85
2022/06/13 05:06:51;;;;;;;22.57;9.80;;;;;;;;;;5002443;28;20461;-82
2022/06/13 05:09:20;;;;;;;22.60;9.90;;;;;;;;;;5000763;28;20473;-81
2022/06/13 05:11:49;;;;;;;20.80;8.97;;;;;;;;;;5005634;28;20484;-82
2022/06/13 05:14:17;;;;;;;21.40;11.37;;;;;;;;;;5004738;28;20461;-81
2022/06/13 05:16:51;;;;;;;16.17;9.03;;;;;;;;;;5006736;28;20487;-82
2022/06/13 05:19:25;;;;;;;16.27;8.23;;;;;;;;;;5008205;28;20827;-81
2022/06/13 05:21:56;;;;;;;19.80;7.50;;;;;;;;;;5003642;28;21026;-81
2022/06/13 05:24:38;;;;;;;20.83;9.57;;;;;;;;;;5011877;28;20969;-82
2022/06/13 05:27:06;;;;;;;17.30;9.63;;;;;;;;;;5025458;28;20548;-82
2022/06/13 05:29:33;;;;;;;16.33;9.90;;;;;;;;;;5013766;28;20444;-81
2022/06/13 05:31:59;;;;;;;23.87;9.63;;;;;;;;;;5011802;28;20466;-82
2022/06/13 05:34:28;;;;;;;17.07;8.53;;;;;;;;;;5010607;28;20511;-82
2022/06/13 05:36:56;;;;;;;26.50;9.47;;;;;;;;;;5011256;28;20461;-85
2022/06/13 05:39:23;;;;;;;16.60;11.10;;;;;;;;;;5008675;28;20550;-84
2022/06/13 05:41:49;;;;;;;16.77;8.90;;;;;;;;;;5012874;28;20497;-84
2022/06/13 05:44:16;;;;;;;19.30;9.60;;;;;;;;;;5014536;28;20460;-84
2022/06/13 05:46:43;;;;;;;19.40;10.40;;;;;;;;;;5013847;28;20886;-82
2022/06/13 05:49:12;;;;;;;12.57;8.40;;;;;;;;;;5014921;28;20560;-82
2022/06/13 05:51:38;;;;;;;27.60;10.53;;;;;;;;;;5017772;28;20879;-84
2022/06/13 05:54:06;;;;;;;14.80;9.00;;;;;;;;;;5024479;28;20548;-82
2022/06/13 05:56:32;;;;;;;16.90;9.87;;;;;;;;;;5011293;28;20489;-83
2022/06/13 05:58:59;;;;;;;17.13;9.20;;;;;;;;;;5015377;28;20496;-82
2022/06/13 06:01:25;;;;;;;16.90;8.73;;;;;;;;;;5015154;28;20554;-83
2022/06/13 06:03:51;;;;;;;17.03;8.93;;;;;;;;;;5016619;28;20461;-84
2022/06/13 06:06:19;;;;;;;18.60;9.17;;;;;;;;;;5012946;28;20489;-83
2022/06/13 06:08:46;;;;;;;18.23;9.53;;;;;;;;;;5012774;28;20432;-81
2022/06/13 06:11:13;;;;;;;19.30;9.70;;;;;;;;;;5012804;28;20521;-83
2022/06/13 06:13:39;;;;;;;20.10;7.47;;;;;;;;;;5012041;28;20461;-84
2022/06/13 06:16:06;;;;;;;18.33;8.00;;;;;;;;;;5012270;28;20488;-84
2022/06/13 06:18:33;;;;;;;23.20;8.70;;;;;;;;;;5011583;28;20494;-82
2022/06/13 06:46:51;;;;;;;12.30;6.33;;;;;;;;;;6024359;23;21432;-77
2022/06/13 06:49:17;;;;;;;16.50;6.93;;;;;;;;;;5013794;28;21158;-77
2022/06/13 06:51:44;;;;;;;14.73;6.20;;;;;;;;;;5018370;28;20509;-77
2022/06/13 06:59:54;;;;;;;6.20;2.07;;;;;;;;;;5017491;23;20436;-77
2022/06/13 07:02:23;;;;;;;2.77;1.40;;;;;;;;;;5014278;28;20461;-80
2022/06/13 07:04:53;;;;;;;3.23;1.37;;;;;;;;;;5016592;28;20435;-79
2022/06/13 07:07:19;;;;;;;2.87;1.77;;;;;;;;;;5019417;28;20530;-78
2022/06/13 07:09:46;;;;;;;2.40;1.30;;;;;;;;;;5016183;28;20508;-78
2022/06/13 07:12:12;;;;;;;2.20;1.20;;;;;;;;;;4998954;28;20463;-77
2022/06/13 07:14:39;;;;;;;1.43;1.30;;;;;;;;;;5001719;28;20469;-79
2022/06/13 07:17:06;;;;;;;2.30;1.43;;;;;;;;;;5001165;28;20843;-79
2022/06/13 07:19:34;;;;;;;2.90;1.50;;;;;;;;;;4997699;28;20953;-79
2022/06/13 07:22:01;;;;;;;3.87;1.60;;;;;;;;;;5001402;28;20472;-80
2022/06/13 07:24:28;;;;;;;4.07;1.83;;;;;;;;;;4986936;28;20500;-80
2022/06/13 07:26:55;;;;;;;2.87;1.73;;;;;;;;;;5012057;23;20502;-83
2022/06/13 07:29:22;;;;;;;3.40;1.70;;;;;;;;;;5016282;28;20535;-81
2022/06/13 07:31:52;;;;;;;4.40;1.80;;;;;;;;;;5017383;28;20481;-80
2022/06/13 07:34:22;;;;;;;4.60;1.93;;;;;;;;;;5008425;28;20484;-80
2022/06/13 07:36:50;;;;;;;3.37;1.90;;;;;;;;;;5015152;28;20493;-80
2022/06/13 07:41:49;;;;;;;2.33;1.73;;;;;;;;;;5015662;28;20474;-79
2022/06/13 07:44:17;;;;;;;4.03;2.00;;;;;;;;;;5018850;28;20489;-79
2022/06/13 07:46:46;;;;;;;1.63;1.53;;;;;;;;;;5019841;28;20819;-80
2022/06/13 07:49:14;;;;;;;1.67;1.43;;;;;;;;;;5020515;28;20469;-79
2022/06/13 07:51:40;;;;;;;2.53;1.60;;;;;;;;;;4998343;28;20466;-79
2022/06/13 07:54:08;;;;;;;2.50;1.30;;;;;;;;;;5000381;28;20832;-80
2022/06/13 07:56:35;;;;;;;3.40;1.60;;;;;;;;;;5000110;28;20969;-79
2022/06/13 07:59:01;;;;;;;2.27;1.73;;;;;;;;;;4997929;28;20997;-79
2022/06/13 08:01:28;;;;;;;4.90;1.97;;;;;;;;;;4999634;28;20565;-79
2022/06/13 08:03:55;;;;;;;4.23;2.10;;;;;;;;;;4999910;28;20482;-80
2022/06/13 08:06:22;;;;;;;4.40;1.80;;;;;;;;;;4997875;28;21039;-80
2022/06/13 08:08:48;;;;;;;3.97;1.97;;;;;;;;;;4999349;28;20470;-80
2022/06/13 08:11:17;;;;;;;4.57;1.90;;;;;;;;;;4998890;28;20468;-79
2022/06/13 08:13:44;;;;;;;4.30;1.83;;;;;;;;;;4998679;28;20850;-80
2022/06/13 08:16:10;;;;;;;4.43;1.90;;;;;;;;;;4999285;28;20936;-79
2022/06/13 08:18:37;;;;;;;4.63;1.77;;;;;;;;;;4997913;28;20494;-80
2022/06/13 08:21:04;;;;;;;6.83;1.80;;;;;;;;;;4997168;28;20984;-80
2022/06/13 08:23:30;;;;;;;4.07;1.90;;;;;;;;;;4999015;28;20443;-80
2022/06/13 08:25:56;;;;;;;2.40;1.47;;;;;;;;;;5000132;28;20466;-80
2022/06/13 08:28:24;;;;;;;5.67;2.10;;;;;;;;;;4999867;28;20432;-81
2022/06/13 08:30:53;;;;;;;3.97;1.60;;;;;;;;;;5000226;28;20460;-81
2022/06/13 08:33:20;;;;;;;4.53;1.60;;;;;;;;;;4999231;28;20437;-80
2022/06/13 08:35:46;;;;;;;1.83;1.50;;;;;;;;;;5001019;28;20436;-80
2022/06/13 08:38:13;;;;;;;2.30;1.87;;;;;;;;;;4998747;28;21028;-81
2022/06/13 08:40:42;;;;;;;2.60;1.70;;;;;;;;;;4998546;28;20486;-80
2022/06/13 08:43:16;;;;;;;6.17;1.80;;;;;;;;;;4999969;28;21011;-82
2022/06/13 08:45:48;;;;;;;4.57;1.60;;;;;;;;;;4998383;28;20473;-85
2022/06/13 08:48:17;;;;;;;5.60;1.53;;;;;;;;;;4999705;28;20961;-85
2022/06/13 08:50:47;;;;;;;3.83;1.60;;;;;;;;;;4997350;28;20481;-84
2022/06/13 08:53:18;;;;;;;3.20;1.60;;;;;;;;;;4999054;28;20461;-84
2022/06/13 08:55:47;;;;;;;2.43;1.40;;;;;;;;;;4997810;28;20455;-86
2022/06/13 08:58:17;;;;;;;3.93;1.70;;;;;;;;;;4998316;28;21030;-86
2022/06/13 09:00:48;;;;;;;3.70;1.63;;;;;;;;;;5000066;28;20985;-86
2022/06/13 09:03:17;;;;;;;2.13;1.20;;;;;;;;;;4996203;28;20474;-88
2022/06/13 09:05:48;;;;;;;2.77;0.90;;;;;;;;;;4998723;28;20818;-86
2022/06/13 09:08:17;;;;;;;2.60;1.30;;;;;;;;;;4996561;28;20545;-83
2022/06/13 09:10:47;;;;;;;3.53;1.70;;;;;;;;;;5000210;28;20466;-81
2022/06/13 09:13:17;;;;;;;4.93;1.47;;;;;;;;;;4998954;28;20466;-79
2022/06/13 09:15:46;;;;;;;2.23;1.07;;;;;;;;;;5000285;28;20490;-79
2022/06/13 09:18:17;;;;;;;4.33;1.30;;;;;;;;;;4999230;28;20463;-79
2022/06/13 09:20:47;;;;;;;5.90;1.40;;;;;;;;;;5000495;28;20486;-79
2022/06/13 09:23:18;;;;;;;9.73;2.10;;;;;;;;;;4999070;28;20461;-79
2022/06/13 09:25:47;;;;;;;2.40;1.10;;;;;;;;;;5000374;28;20855;-78
2022/06/13 09:28:17;;;;;;;2.30;1.17;;;;;;;;;;5000074;28;20458;-78
2022/06/13 09:30:47;;;;;;;4.23;1.50;;;;;;;;;;4999297;28;20468;-79
2022/06/13 09:33:19;;;;;;;2.03;1.40;;;;;;;;;;5000689;28;20836;-78
2022/06/13 09:35:47;;;;;;;6.67;1.60;;;;;;;;;;4999323;28;20983;-78
2022/06/13 09:38:17;;;;;;;4.70;1.60;;;;;;;;;;4999425;28;20834;-80
2022/06/13 09:40:47;;;;;;;2.10;1.43;;;;;;;;;;4998404;28;21001;-79
2022/06/13 09:43:22;;;;;;;2.67;1.33;;;;;;;;;;4999336;28;20476;-78
2022/06/13 09:45:57;;;;;;;4.30;1.20;;;;;;;;;;4998101;28;20461;-80
2022/06/13 09:48:36;;;;;;;2.30;1.10;;;;;;;;;;4996603;28;20961;-79
2022/06/13 09:51:07;;;;;;;1.40;0.83;;;;;;;;;;5000336;28;20556;-79
2022/06/13 09:53:37;;;;;;;1.50;1.10;;;;;;;;;;4998822;28;20470;-79
2022/06/13 09:56:06;;;;;;;2.07;1.27;;;;;;;;;;5000162;28;20461;-78
2022/06/13 09:58:42;;;;;;;2.40;0.93;;;;;;;;;;4998758;28;20900;-79
2022/06/13 10:01:11;;;;;;;2.00;1.00;;;;;;;;;;5000463;28;20483;-80
2022/06/13 10:03:47;;;;;;;2.70;1.00;;;;;;;;;;5000568;28;20525;-80
2022/06/13 10:06:18;;;;;;;2.77;0.80;;;;;;;;;;5002900;28;20461;-80
2022/06/13 10:08:50;;;;;;;3.60;0.93;;;;;;;;;;5001213;28;20489;-79
2022/06/13 10:11:20;;;;;;;0.90;0.73;;;;;;;;;;5002955;28;21062;-79
2022/06/13 10:13:53;;;;;;;2.00;1.00;;;;;;;;;;5000732;28;20481;-79
2022/06/13 10:16:25;;;;;;;2.90;1.40;;;;;;;;;;5002511;28;20441;-79
2022/06/13 10:19:03;;;;;;;2.57;0.90;;;;;;;;;;5002317;28;20449;-79
2022/06/13 10:21:34;;;;;;;1.50;0.73;;;;;;;;;;5003224;28;20939;-79
2022/06/13 10:24:06;;;;;;;4.60;0.90;;;;;;;;;;5001733;28;20530;-78
2022/06/13 10:26:36;;;;;;;3.30;1.00;;;;;;;;;;5001790;28;20436;-79
2022/06/13 10:29:21;;;;;;;2.03;1.30;;;;;;;;;;5000317;28;20477;-79
2022/06/13 10:31:53;;;;;;;3.37;1.10;;;;;;;;;;5002898;28;20466;-79
2022/06/13 10:34:25;;;;;;;3.70;1.10;;;;;;;;;;5001805;28;20436;-79
2022/06/13 10:37:06;;;;;;;4.30;1.30;;;;;;;;;;5002622;28;20523;-79
2022/06/13 10:39:32;;;;;;;1.57;1.27;;;;;;;;;;5001672;28;20490;-79
2022/06/13 10:42:02;;;;;;;1.90;1.07;;;;;;;;;;5002512;28;20459;-81
2022/06/13 10:44:28;;;;;;;1.80;1.20;;;;;;;;;;5000015;28;20562;-78
2022/06/13 10:46:57;;;;;;;4.23;1.23;;;;;;;;;;5002478;28;20559;-81
2022/06/13 10:49:26;;;;;;;2.80;1.80;;;;;;;;;;5001036;28;20481;-78
2022/06/13 10:51:57;;;;;;;2.00;1.53;;;;;;;;;;5004019;28;20465;-78
2022/06/13 10:54:25;;;;;;;1.33;0.83;;;;;;;;;;5001913;28;20474;-79
2022/06/13 10:56:53;;;;;;;4.40;1.43;;;;;;;;;;4999962;28;20469;-78
2022/06/13 10:59:24;;;;;;;4.13;1.50;;;;;;;;;;4999669;28;20852;-78
2022/06/13 11:01:58;;;;;;;3.10;1.27;;;;;;;;;;5001273;28;20968;-78
2022/06/13 11:04:26;;;;;;;3.27;1.27;;;;;;;;;;4999244;28;20903;-78
2022/06/13 11:06:54;;;;;;;1.70;1.20;;;;;;;;;;5001487;28;20440;-78
2022/06/13 11:09:23;;;;;;;2.93;1.37;;;;;;;;;;5000929;28;20579;-78
2022/06/13 11:11:53;;;;;;;3.30;1.43;;;;;;;;;;4999163;28;20461;-78
2022/06/13 11:14:27;;;;;;;3.00;2.03;;;;;;;;;;4999879;28;20481;-79
2022/06/13 11:22:39;;;;;;;2.53;1.30;;;;;;;;;;5000091;28;21088;-78
2022/06/13 11:25:12;;;;;;;3.57;1.03;;;;;;;;;;5001269;28;20488;-78
2022/06/13 11:27:43;;;;;;;2.97;1.23;;;;;;;;;;4999842;28;20440;-78
2022/06/13 11:30:20;;;;;;;2.53;0.90;;;;;;;;;;5001682;28;20485;-79
2022/06/13 11:32:56;;;;;;;2.03;0.80;;;;;;;;;;5001159;28;20473;-79
2022/06/13 11:35:32;;;;;;;4.40;1.33;;;;;;;;;;4997779;28;21066;-79
2022/06/13 11:38:16;;;;;;;1.87;0.90;;;;;;;;;;4999557;28;20490;-79
2022/06/13 11:40:42;;;;;;;3.50;1.30;;;;;;;;;;5001253;28;20847;-79
2022/06/13 11:43:17;;;;;;;1.70;0.73;;;;;;;;;;4998750;28;20501;-80
2022/06/13 11:45:44;;;;;;;1.97;0.80;;;;;;;;;;5001770;28;20444;-78
2022/06/13 11:48:14;;;;;;;5.10;1.30;;;;;;;;;;5000842;28;20466;-79
2022/06/13 11:50:42;;;;;;;0.93;0.80;;;;;;;;;;4995815;28;20484;-80
2022/06/13 11:55:58;;;;;;;3.70;1.27;;;;;;;;;;5000124;28;20619;-80
2022/06/13 11:58:25;;;;;;;1.60;1.10;;;;;;;;;;4998829;28;20465;-79
2022/06/13 12:00:53;;;;;;;1.70;1.10;;;;;;;;;;5000957;28;20999;-78
2022/06/13 12:03:20;;;;;;;3.77;1.43;;;;;;;;;;5000231;28;20889;-79
2022/06/13 12:05:50;;;;;;;3.43;1.33;;;;;;;;;;5001136;28;20457;-79
2022/06/13 12:08:21;;;;;;;2.43;1.27;;;;;;;;;;5000380;28;21009;-79
2022/06/13 12:10:56;;;;;;;6.47;1.23;;;;;;;;;;4998771;28;20501;-80
2022/06/13 12:13:22;;;;;;;3.23;1.50;;;;;;;;;;4997660;28;20452;-79
2022/06/13 12:15:52;;;;;;;5.90;2.40;;;;;;;;;;4999329;28;20784;-78
2022/06/13 12:18:21;;;;;;;5.13;0.97;;;;;;;;;;4998332;28;20465;-78
2022/06/13 12:20:49;;;;;;;2.13;1.53;;;;;;;;;;5000585;28;20479;-79
2022/06/13 12:23:20;;;;;;;5.13;1.50;;;;;;;;;;4999497;28;20462;-79
2022/06/13 12:25:49;;;;;;;8.60;1.60;;;;;;;;;;5000289;28;20431;-79
2022/06/13 12:28:16;;;;;;;2.53;1.23;;;;;;;;;;4999677;28;20934;-78
2022/06/13 12:30:49;;;;;;;2.70;1.20;;;;;;;;;;4998279;28;20492;-79
2022/06/13 12:33:22;;;;;;;1.87;1.37;;;;;;;;;;5000111;28;20429;-79
2022/06/13 12:35:59;;;;;;;2.70;1.30;;;;;;;;;;5000072;28;20424;-79
2022/06/13 12:38:37;;;;;;;7.43;1.30;;;;;;;;;;4999395;28;20440;-79
2022/06/13 12:41:07;;;;;;;7.10;1.67;;;;;;;;;;4999733;28;20984;-79
2022/06/13 12:43:41;;;;;;;2.90;1.60;;;;;;;;;;4999926;28;20467;-79
2022/06/13 12:46:19;;;;;;;3.10;1.43;;;;;;;;;;4997849;28;20444;-79
2022/06/13 12:48:49;;;;;;;6.63;1.97;;;;;;;;;;4998844;28;20455;-79
2022/06/13 12:51:20;;;;;;;2.60;1.30;;;;;;;;;;5000308;28;20470;-79
2022/06/13 12:54:00;;;;;;;9.30;1.63;;;;;;;;;;4999832;28;20492;-79
2022/06/13 12:56:29;;;;;;;7.80;2.20;;;;;;;;;;4999239;28;20424;-79
2022/06/13 12:59:03;;;;;;;4.37;2.00;;;;;;;;;;4999953;28;20478;-78
2022/06/13 13:01:34;;;;;;;5.50;2.00;;;;;;;;;;4997790;28;20548;-79
2022/06/13 13:04:25;;;;;;;7.60;1.90;;;;;;;;;;4999166;28;20482;-79
2022/06/13 13:06:55;;;;;;;3.80;1.63;;;;;;;;;;4980586;28;20446;-79
2022/06/13 13:09:33;;;;;;;9.47;2.00;;;;;;;;;;4998323;28;20466;-80
2022/06/13 13:12:05;;;;;;;3.30;1.63;;;;;;;;;;4998227;28;20979;-79
2022/06/13 13:14:37;;;;;;;3.90;1.63;;;;;;;;;;4997928;28;20482;-79
2022/06/13 13:17:08;;;;;;;7.13;2.87;;;;;;;;;;5000637;28;20446;-79
2022/06/13 13:19:41;;;;;;;6.63;1.90;;;;;;;;;;4998363;28;20486;-79
2022/06/13 13:22:11;;;;;;;6.30;2.27;;;;;;;;;;4999853;28;20951;-79
2022/06/13 13:24:48;;;;;;;7.20;1.70;;;;;;;;;;4998405;28;20577;-79
2022/06/13 13:27:15;;;;;;;4.17;1.80;;;;;;;;;;4999555;28;20457;-79
2022/06/13 13:29:47;;;;;;;3.00;1.37;;;;;;;;;;4998902;28;20477;-79
2022/06/13 13:32:18;;;;;;;1.97;1.47;;;;;;;;;;4999978;28;20833;-80
2022/06/13 13:34:49;;;;;;;4.53;1.53;;;;;;;;;;4999257;28;20569;-79
2022/06/13 13:37:26;;;;;;;9.70;2.30;;;;;;;;;;5000272;28;20561;-79
2022/06/13 13:42:31;;;;;;;6.40;2.20;;;;;;;;;;5044801;28;20463;-91
2022/06/13 13:45:01;;;;;;;7.07;2.20;;;;;;;;;;5043909;28;20480;-92
2022/06/13 13:47:29;;;;;;;6.23;2.77;;;;;;;;;;5046140;28;20433;-93
2022/06/13 13:49:58;;;;;;;6.07;2.67;;;;;;;;;;5044064;28;20574;-93
2022/06/13 13:52:27;;;;;;;10.03;3.00;;;;;;;;;;5044920;28;20460;-92
2022/06/13 13:54:54;;;;;;;5.37;2.50;;;;;;;;;;5046148;28;20550;-90
2022/06/13 13:57:25;;;;;;;2.70;2.00;;;;;;;;;;5047812;28;20474;-92
2022/06/13 13:59:55;;;;;;;9.70;2.50;;;;;;;;;;5045335;28;20480;-91
2022/06/13 14:02:30;;;;;;;6.57;2.10;;;;;;;;;;5046264;28;20458;-91
2022/06/13 14:05:01;;;;;;;4.37;1.97;;;;;;;;;;5045271;28;21001;-87
2022/06/13 14:07:42;;;;;;;7.53;2.97;;;;;;;;;;5043499;28;20583;-91
2022/06/13 14:10:10;;;;;;;10.77;2.47;;;;;;;;;;5043902;28;20958;-87
2022/06/13 14:12:51;;;;;;;17.23;3.30;;;;;;;;;;5044787;28;20835;-87
2022/06/13 14:15:30;;;;;;;9.30;1.83;;;;;;;;;;5043252;28;20563;-91
2022/06/13 14:17:57;;;;;;;8.70;3.57;;;;;;;;;;5045359;28;20467;-88
2022/06/13 14:20:26;;;;;;;6.30;2.77;;;;;;;;;;5045595;28;20457;-88
2022/06/13 14:22:56;;;;;;;5.27;1.83;;;;;;;;;;5044086;28;20463;-91
2022/06/13 14:25:24;;;;;;;4.97;2.83;;;;;;;;;;5045213;28;20475;-91
2022/06/13 14:27:54;;;;;;;7.40;1.80;;;;;;;;;;5046281;28;20465;-90
2022/06/13 14:33:09;;;;;;;6.80;2.30;;;;;;;;;;5048817;28;20493;-89
2022/06/13 14:35:56;;;;;;;3.13;1.90;;;;;;;;;;5044053;28;20977;-90
2022/06/13 14:38:25;;;;;;;3.60;1.60;;;;;;;;;;5043270;28;20578;-93
2022/06/13 14:40:54;;;;;;;8.10;1.70;;;;;;;;;;5047157;28;20485;-91
2022/06/13 14:43:32;;;;;;;3.03;1.60;;;;;;;;;;5041737;28;20472;-86
2022/06/13 14:46:02;;;;;;;3.97;1.50;;;;;;;;;;5045494;28;20511;-89
2022/06/13 14:48:41;;;;;;;2.27;1.17;;;;;;;;;;5040061;28;20432;-88
2022/06/13 14:51:19;;;;;;;8.13;2.10;;;;;;;;;;5043021;28;20541;-82
2022/06/13 14:53:46;;;;;;;5.40;1.50;;;;;;;;;;5038137;28;20479;-83
2022/06/13 14:56:31;;;;;;;5.60;1.87;;;;;;;;;;5041797;28;20465;-85
2022/06/13 14:58:59;;;;;;;5.13;1.60;;;;;;;;;;5038735;28;20479;-83
2022/06/13 15:01:28;;;;;;;4.53;1.90;;;;;;;;;;5038535;28;20470;-83
2022/06/13 15:04:15;;;;;;;3.83;2.30;;;;;;;;;;5040878;28;20478;-84
2022/06/13 15:06:46;;;;;;;6.43;1.80;;;;;;;;;;5040002;28;21203;-82
2022/06/13 15:09:18;;;;;;;5.00;2.00;;;;;;;;;;5040690;28;20535;-81
2022/06/13 15:11:45;;;;;;;6.50;2.17;;;;;;;;;;5038013;28;20494;-83
2022/06/13 15:14:13;;;;;;;7.33;1.70;;;;;;;;;;5039286;28;21010;-85
2022/06/13 15:16:41;;;;;;;4.30;1.77;;;;;;;;;;5041403;28;20526;-84
2022/06/13 15:19:08;;;;;;;4.00;1.80;;;;;;;;;;5036786;28;21054;-88
2022/06/13 15:21:36;;;;;;;10.43;3.30;;;;;;;;;;5038085;28;20645;-84
2022/06/13 15:24:07;;;;;;;6.93;2.67;;;;;;;;;;5039786;28;20475;-86
2022/06/13 15:26:34;;;;;;;5.93;2.23;;;;;;;;;;5037981;28;20460;-89
2022/06/13 15:29:17;;;;;;;2.90;1.70;;;;;;;;;;5038893;28;20553;-89
2022/06/13 15:31:46;;;;;;;4.83;1.80;;;;;;;;;;5040455;28;20471;-86
2022/06/13 15:34:14;;;;;;;8.80;3.00;;;;;;;;;;5041535;28;20469;-87
2022/06/13 15:36:42;;;;;;;5.73;2.00;;;;;;;;;;5041863;28;20475;-85
2022/06/13 15:39:09;;;;;;;7.67;2.20;;;;;;;;;;5042004;28;20482;-86
2022/06/13 15:41:39;;;;;;;5.23;1.80;;;;;;;;;;5041428;28;20855;-87
2022/06/13 15:44:06;;;;;;;7.77;1.87;;;;;;;;;;5039552;28;20586;-89
2022/06/13 15:46:35;;;;;;;8.50;2.50;;;;;;;;;;5042480;28;20471;-88